sensor_id;sensor_type;location;lat;lon;timestamp;temperature;humidity
9177;DHT22;4623;54.310;10.112;2022-09-03T00:02:15;17.30;99.90
9177;DHT22;4623;54.310;10.112;2022-09-03T00:09:59;17.20;99.90
9177;DHT22;4623;54.310;10.112;2022-09-03T00:12:31;17.20;99.90
9177;DHT22;4623;54.310;10.112;2022-09-03T00:15:11;17.20;99.90
9177;DHT22;4623;54.310;10.112;2022-09-03T00:17:41;17.20;99.90
9177;DHT22;4623;54.310;10.112;2022-09-03T00:20:31;17.20;99.90
9177;DHT22;4623;54.310;10.112;2022-09-03T00:23:00;17.20;99.90
9177;DHT22;4623;54.310;10.112;2022-09-03T00:25:38;17.20;99.90
9177;DHT22;4623;54.310;10.112;2022-09-03T00:28:14;17.30;99.90
9177;DHT22;4623;54.310;10.112;2022-09-03T00:30:41;17.20;99.90
9177;DHT22;4623;54.310;10.112;2022-09-03T00:33:16;17.20;99.90
9177;DHT22;4623;54.310;10.112;2022-09-03T00:35:50;17.20;99.90
9177;DHT22;4623;54.310;10.112;2022-09-03T00:38:18;17.20;99.90
9177;DHT22;4623;54.310;10.112;2022-09-03T00:43:52;17.20;99.90
9177;DHT22;4623;54.310;10.112;2022-09-03T01:00:14;17.30;99.90
9177;DHT22;4623;54.310;10.112;2022-09-03T01:02:59;17.30;99.90
9177;DHT22;4623;54.310;10.112;2022-09-03T01:16:45;17.20;99.90
9177;DHT22;4623;54.310;10.112;2022-09-03T01:30:10;17.20;99.90
9177;DHT22;4623;54.310;10.112;2022-09-03T01:38:16;17.20;99.90
9177;DHT22;4623;54.310;10.112;2022-09-03T01:46:41;17.10;99.90
9177;DHT22;4623;54.310;10.112;2022-09-03T01:51:35;17.10;99.90
9177;DHT22;4623;54.310;10.112;2022-09-03T02:02:09;17.00;99.90
9177;DHT22;4623;54.310;10.112;2022-09-03T02:05:02;17.00;99.90
9177;DHT22;4623;54.310;10.112;2022-09-03T02:07:34;17.00;99.90
9177;DHT22;4623;54.310;10.112;2022-09-03T02:10:02;17.00;99.90
9177;DHT22;4623;54.310;10.112;2022-09-03T02:12:30;17.00;99.90
9177;DHT22;4623;54.310;10.112;2022-09-03T02:15:00;17.00;99.90
9177;DHT22;4623;54.310;10.112;2022-09-03T02:17:31;17.00;99.90
9177;DHT22;4623;54.310;10.112;2022-09-03T02:19:57;17.00;99.90
9177;DHT22;4623;54.310;10.112;2022-09-03T02:22:24;17.00;99.90
9177;DHT22;4623;54.310;10.112;2022-09-03T02:24:50;17.00;99.90
9177;DHT22;4623;54.310;10.112;2022-09-03T02:27:16;17.00;99.90
9177;DHT22;4623;54.310;10.112;2022-09-03T02:29:43;17.00;99.90
9177;DHT22;4623;54.310;10.112;2022-09-03T02:32:09;17.10;99.90
9177;DHT22;4623;54.310;10.112;2022-09-03T02:34:34;17.10;99.90
9177;DHT22;4623;54.310;10.112;2022-09-03T02:37:11;17.00;99.90
9177;DHT22;4623;54.310;10.112;2022-09-03T02:39:37;17.10;99.90
9177;DHT22;4623;54.310;10.112;2022-09-03T02:42:03;17.00;99.90
9177;DHT22;4623;54.310;10.112;2022-09-03T02:44:34;16.90;99.90
9177;DHT22;4623;54.310;10.112;2022-09-03T02:47:03;16.90;99.90
9177;DHT22;4623;54.310;10.112;2022-09-03T02:49:29;16.90;99.90
9177;DHT22;4623;54.310;10.112;2022-09-03T02:52:05;16.90;99.90
9177;DHT22;4623;54.310;10.112;2022-09-03T02:54:32;16.80;99.90
9177;DHT22;4623;54.310;10.112;2022-09-03T02:57:01;16.80;99.90
9177;DHT22;4623;54.310;10.112;2022-09-03T02:59:26;16.80;99.90
9177;DHT22;4623;54.310;10.112;2022-09-03T03:01:55;16.80;99.90
9177;DHT22;4623;54.310;10.112;2022-09-03T03:04:21;16.80;99.90
9177;DHT22;4623;54.310;10.112;2022-09-03T03:06:47;16.80;99.90
9177;DHT22;4623;54.310;10.112;2022-09-03T03:09:15;16.70;99.90
9177;DHT22;4623;54.310;10.112;2022-09-03T03:11:41;16.70;99.90
9177;DHT22;4623;54.310;10.112;2022-09-03T03:14:06;16.60;99.90
9177;DHT22;4623;54.310;10.112;2022-09-03T03:16:32;16.60;99.90
9177;DHT22;4623;54.310;10.112;2022-09-03T03:18:58;16.60;99.90
9177;DHT22;4623;54.310;10.112;2022-09-03T03:21:24;16.60;99.90
9177;DHT22;4623;54.310;10.112;2022-09-03T03:23:50;16.60;99.90
9177;DHT22;4623;54.310;10.112;2022-09-03T03:26:17;16.60;99.90
9177;DHT22;4623;54.310;10.112;2022-09-03T03:28:45;16.50;99.90
9177;DHT22;4623;54.310;10.112;2022-09-03T03:31:19;16.50;99.90
9177;DHT22;4623;54.310;10.112;2022-09-03T03:33:53;16.40;99.90
9177;DHT22;4623;54.310;10.112;2022-09-03T03:36:19;16.40;99.90
9177;DHT22;4623;54.310;10.112;2022-09-03T03:38:45;16.40;99.90
9177;DHT22;4623;54.310;10.112;2022-09-03T03:41:28;16.40;99.90
9177;DHT22;4623;54.310;10.112;2022-09-03T03:43:57;16.40;99.90
9177;DHT22;4623;54.310;10.112;2022-09-03T03:46:24;16.40;99.90
9177;DHT22;4623;54.310;10.112;2022-09-03T03:48:51;16.30;99.90
9177;DHT22;4623;54.310;10.112;2022-09-03T03:51:17;16.30;99.90
9177;DHT22;4623;54.310;10.112;2022-09-03T03:53:43;16.30;99.90
9177;DHT22;4623;54.310;10.112;2022-09-03T03:56:13;16.30;99.90
9177;DHT22;4623;54.310;10.112;2022-09-03T03:58:40;16.30;99.90
9177;DHT22;4623;54.310;10.112;2022-09-03T04:01:14;16.20;99.90
9177;DHT22;4623;54.310;10.112;2022-09-03T04:03:40;16.30;99.90
9177;DHT22;4623;54.310;10.112;2022-09-03T04:06:07;16.20;99.90
9177;DHT22;4623;54.310;10.112;2022-09-03T04:08:34;16.20;99.90
9177;DHT22;4623;54.310;10.112;2022-09-03T04:11:02;16.20;99.90
9177;DHT22;4623;54.310;10.112;2022-09-03T04:13:32;16.10;99.90
9177;DHT22;4623;54.310;10.112;2022-09-03T04:16:09;16.10;99.90
9177;DHT22;4623;54.310;10.112;2022-09-03T04:18:36;16.10;99.90
9177;DHT22;4623;54.310;10.112;2022-09-03T04:21:08;16.10;99.90
9177;DHT22;4623;54.310;10.112;2022-09-03T04:23:36;16.10;99.90
9177;DHT22;4623;54.310;10.112;2022-09-03T04:26:02;16.10;99.90
9177;DHT22;4623;54.310;10.112;2022-09-03T04:28:28;16.10;99.90
9177;DHT22;4623;54.310;10.112;2022-09-03T04:30:54;16.00;99.90
9177;DHT22;4623;54.310;10.112;2022-09-03T04:33:24;16.00;99.90
9177;DHT22;4623;54.310;10.112;2022-09-03T04:35:50;16.00;99.90
9177;DHT22;4623;54.310;10.112;2022-09-03T04:38:15;16.00;99.90
9177;DHT22;4623;54.310;10.112;2022-09-03T04:40:41;15.90;99.90
9177;DHT22;4623;54.310;10.112;2022-09-03T04:43:07;15.90;99.90
9177;DHT22;4623;54.310;10.112;2022-09-03T04:45:32;15.90;99.90
9177;DHT22;4623;54.310;10.112;2022-09-03T04:48:01;15.90;99.90
9177;DHT22;4623;54.310;10.112;2022-09-03T04:50:28;15.90;99.90
9177;DHT22;4623;54.310;10.112;2022-09-03T04:53:01;15.80;99.90
9177;DHT22;4623;54.310;10.112;2022-09-03T04:55:27;15.90;99.90
9177;DHT22;4623;54.310;10.112;2022-09-03T04:57:53;15.90;99.90
9177;DHT22;4623;54.310;10.112;2022-09-03T05:00:19;15.90;99.90
9177;DHT22;4623;54.310;10.112;2022-09-03T05:02:45;15.90;99.90
9177;DHT22;4623;54.310;10.112;2022-09-03T05:05:13;15.90;99.90
9177;DHT22;4623;54.310;10.112;2022-09-03T05:07:39;15.80;99.90
9177;DHT22;4623;54.310;10.112;2022-09-03T05:10:06;15.80;99.90
9177;DHT22;4623;54.310;10.112;2022-09-03T05:12:33;15.90;99.90
9177;DHT22;4623;54.310;10.112;2022-09-03T05:14:59;15.90;99.90
9177;DHT22;4623;54.310;10.112;2022-09-03T05:17:26;15.90;99.90
9177;DHT22;4623;54.310;10.112;2022-09-03T05:19:52;15.90;99.90
9177;DHT22;4623;54.310;10.112;2022-09-03T05:22:18;15.80;99.90
9177;DHT22;4623;54.310;10.112;2022-09-03T05:24:48;15.80;99.90
9177;DHT22;4623;54.310;10.112;2022-09-03T05:27:15;15.80;99.90
9177;DHT22;4623;54.310;10.112;2022-09-03T05:29:44;15.80;99.90
9177;DHT22;4623;54.310;10.112;2022-09-03T05:32:10;15.90;99.90
9177;DHT22;4623;54.310;10.112;2022-09-03T05:34:37;15.90;99.90
9177;DHT22;4623;54.310;10.112;2022-09-03T05:37:03;15.90;99.90
9177;DHT22;4623;54.310;10.112;2022-09-03T05:39:29;15.90;99.90
9177;DHT22;4623;54.310;10.112;2022-09-03T05:41:55;15.90;99.90
9177;DHT22;4623;54.310;10.112;2022-09-03T05:44:20;15.90;99.90
9177;DHT22;4623;54.310;10.112;2022-09-03T05:46:47;16.00;99.90
9177;DHT22;4623;54.310;10.112;2022-09-03T05:49:14;16.00;99.90
9177;DHT22;4623;54.310;10.112;2022-09-03T05:51:40;16.00;99.90
9177;DHT22;4623;54.310;10.112;2022-09-03T05:54:07;16.00;99.90
9177;DHT22;4623;54.310;10.112;2022-09-03T05:56:34;16.10;99.90
9177;DHT22;4623;54.310;10.112;2022-09-03T05:59:03;16.10;99.90
9177;DHT22;4623;54.310;10.112;2022-09-03T06:01:33;16.20;99.90
9177;DHT22;4623;54.310;10.112;2022-09-03T06:03:59;16.20;99.90
9177;DHT22;4623;54.310;10.112;2022-09-03T06:06:26;16.10;99.90
9177;DHT22;4623;54.310;10.112;2022-09-03T06:08:57;16.20;99.90
9177;DHT22;4623;54.310;10.112;2022-09-03T06:11:26;16.20;99.90
9177;DHT22;4623;54.310;10.112;2022-09-03T06:13:59;16.30;99.90
9177;DHT22;4623;54.310;10.112;2022-09-03T06:16:30;16.30;99.90
9177;DHT22;4623;54.310;10.112;2022-09-03T06:18:56;16.40;99.90
9177;DHT22;4623;54.310;10.112;2022-09-03T06:21:22;16.40;99.90
9177;DHT22;4623;54.310;10.112;2022-09-03T06:23:52;16.50;99.90
9177;DHT22;4623;54.310;10.112;2022-09-03T06:26:18;16.50;99.90
9177;DHT22;4623;54.310;10.112;2022-09-03T06:28:45;16.60;99.90
9177;DHT22;4623;54.310;10.112;2022-09-03T06:31:14;16.60;99.90
9177;DHT22;4623;54.310;10.112;2022-09-03T06:33:42;16.60;99.90
9177;DHT22;4623;54.310;10.112;2022-09-03T06:36:10;16.70;99.90
9177;DHT22;4623;54.310;10.112;2022-09-03T06:38:38;16.70;99.90
9177;DHT22;4623;54.310;10.112;2022-09-03T06:41:06;16.80;99.90
9177;DHT22;4623;54.310;10.112;2022-09-03T06:43:40;16.80;99.90
9177;DHT22;4623;54.310;10.112;2022-09-03T06:46:11;16.80;99.90
9177;DHT22;4623;54.310;10.112;2022-09-03T06:48:38;16.90;99.90
9177;DHT22;4623;54.310;10.112;2022-09-03T06:51:09;16.90;99.90
9177;DHT22;4623;54.310;10.112;2022-09-03T06:53:41;17.00;99.90
9177;DHT22;4623;54.310;10.112;2022-09-03T06:56:12;17.00;99.90
9177;DHT22;4623;54.310;10.112;2022-09-03T06:58:43;17.10;99.90
9177;DHT22;4623;54.310;10.112;2022-09-03T07:01:18;17.10;99.90
9177;DHT22;4623;54.310;10.112;2022-09-03T07:03:46;17.10;99.90
9177;DHT22;4623;54.310;10.112;2022-09-03T07:06:16;17.10;99.90
9177;DHT22;4623;54.310;10.112;2022-09-03T07:08:43;17.10;99.90
9177;DHT22;4623;54.310;10.112;2022-09-03T07:11:17;17.10;99.90
9177;DHT22;4623;54.310;10.112;2022-09-03T07:13:46;17.10;99.90
9177;DHT22;4623;54.310;10.112;2022-09-03T07:16:13;17.20;99.90
9177;DHT22;4623;54.310;10.112;2022-09-03T07:18:39;17.30;99.90
9177;DHT22;4623;54.310;10.112;2022-09-03T07:21:10;17.40;99.90
9177;DHT22;4623;54.310;10.112;2022-09-03T07:23:37;17.50;99.90
9177;DHT22;4623;54.310;10.112;2022-09-03T07:26:06;17.70;99.90
9177;DHT22;4623;54.310;10.112;2022-09-03T07:28:34;17.70;99.90
9177;DHT22;4623;54.310;10.112;2022-09-03T07:31:03;17.90;99.90
9177;DHT22;4623;54.310;10.112;2022-09-03T07:33:29;18.00;99.90
9177;DHT22;4623;54.310;10.112;2022-09-03T07:36:00;18.10;99.90
9177;DHT22;4623;54.310;10.112;2022-09-03T07:38:26;18.30;99.90
9177;DHT22;4623;54.310;10.112;2022-09-03T07:41:03;18.40;99.90
9177;DHT22;4623;54.310;10.112;2022-09-03T07:43:36;18.30;99.90
9177;DHT22;4623;54.310;10.112;2022-09-03T07:46:07;18.40;99.90
9177;DHT22;4623;54.310;10.112;2022-09-03T07:48:33;18.50;99.90
9177;DHT22;4623;54.310;10.112;2022-09-03T07:50:59;18.60;99.90
9177;DHT22;4623;54.310;10.112;2022-09-03T07:53:28;18.60;99.90
9177;DHT22;4623;54.310;10.112;2022-09-03T07:56:02;18.60;99.90
9177;DHT22;4623;54.310;10.112;2022-09-03T07:58:32;18.70;99.90
9177;DHT22;4623;54.310;10.112;2022-09-03T08:00:58;18.70;99.90
9177;DHT22;4623;54.310;10.112;2022-09-03T08:03:24;18.90;99.90
9177;DHT22;4623;54.310;10.112;2022-09-03T08:05:49;19.00;99.90
9177;DHT22;4623;54.310;10.112;2022-09-03T08:08:15;19.10;99.90
9177;DHT22;4623;54.310;10.112;2022-09-03T08:10:42;19.30;99.90
9177;DHT22;4623;54.310;10.112;2022-09-03T08:13:08;19.40;99.90
9177;DHT22;4623;54.310;10.112;2022-09-03T08:15:35;19.40;99.90
9177;DHT22;4623;54.310;10.112;2022-09-03T08:18:02;19.40;99.90
9177;DHT22;4623;54.310;10.112;2022-09-03T08:20:28;19.40;99.90
9177;DHT22;4623;54.310;10.112;2022-09-03T08:23:00;19.40;99.90
9177;DHT22;4623;54.310;10.112;2022-09-03T08:25:27;19.60;99.90
9177;DHT22;4623;54.310;10.112;2022-09-03T08:27:53;19.70;99.90
9177;DHT22;4623;54.310;10.112;2022-09-03T08:30:19;19.80;99.90
9177;DHT22;4623;54.310;10.112;2022-09-03T08:32:45;20.00;99.90
9177;DHT22;4623;54.310;10.112;2022-09-03T08:35:11;20.10;99.90
9177;DHT22;4623;54.310;10.112;2022-09-03T08:37:37;20.10;98.80
9177;DHT22;4623;54.310;10.112;2022-09-03T08:40:04;20.10;98.90
9177;DHT22;4623;54.310;10.112;2022-09-03T08:42:42;20.20;99.90
9177;DHT22;4623;54.310;10.112;2022-09-03T08:45:16;20.30;97.10
9177;DHT22;4623;54.310;10.112;2022-09-03T08:47:47;20.30;96.70
9177;DHT22;4623;54.310;10.112;2022-09-03T08:50:28;20.30;94.70
9177;DHT22;4623;54.310;10.112;2022-09-03T08:55:55;20.70;93.50
9177;DHT22;4623;54.310;10.112;2022-09-03T08:58:25;20.80;90.70
9177;DHT22;4623;54.310;10.112;2022-09-03T09:14:11;24.10;90.10
9177;DHT22;4623;54.310;10.112;2022-09-03T09:22:16;25.60;61.30
9177;DHT22;4623;54.310;10.112;2022-09-03T09:24:49;26.00;55.10
9177;DHT22;4623;54.310;10.112;2022-09-03T09:27:17;26.00;53.50
9177;DHT22;4623;54.310;10.112;2022-09-03T09:29:47;26.40;53.80
9177;DHT22;4623;54.310;10.112;2022-09-03T09:32:13;26.40;51.90
9177;DHT22;4623;54.310;10.112;2022-09-03T09:34:42;25.60;50.40
9177;DHT22;4623;54.310;10.112;2022-09-03T09:37:13;25.40;48.70
9177;DHT22;4623;54.310;10.112;2022-09-03T09:39:40;24.80;49.80
9177;DHT22;4623;54.310;10.112;2022-09-03T09:42:09;24.20;49.90
9177;DHT22;4623;54.310;10.112;2022-09-03T09:44:37;24.90;50.40
9177;DHT22;4623;54.310;10.112;2022-09-03T09:49:55;25.60;50.70
9177;DHT22;4623;54.310;10.112;2022-09-03T09:52:24;26.00;48.20
9177;DHT22;4623;54.310;10.112;2022-09-03T09:54:51;26.60;48.20
9177;DHT22;4623;54.310;10.112;2022-09-03T09:57:23;27.00;47.50
9177;DHT22;4623;54.310;10.112;2022-09-03T10:00:01;27.40;46.20
9177;DHT22;4623;54.310;10.112;2022-09-03T10:02:28;27.20;44.80
9177;DHT22;4623;54.310;10.112;2022-09-03T10:05:14;27.10;45.50
9177;DHT22;4623;54.310;10.112;2022-09-03T10:07:41;27.70;44.40
9177;DHT22;4623;54.310;10.112;2022-09-03T10:10:17;28.10;45.40
9177;DHT22;4623;54.310;10.112;2022-09-03T10:13:08;27.30;44.10
9177;DHT22;4623;54.310;10.112;2022-09-03T10:16:03;27.40;43.90
9177;DHT22;4623;54.310;10.112;2022-09-03T10:21:35;27.30;44.30
9177;DHT22;4623;54.310;10.112;2022-09-03T10:26:58;27.00;43.90
9177;DHT22;4623;54.310;10.112;2022-09-03T10:29:24;27.50;44.90
9177;DHT22;4623;54.310;10.112;2022-09-03T10:37:41;27.20;43.10
9177;DHT22;4623;54.310;10.112;2022-09-03T10:46:05;28.10;42.80
9177;DHT22;4623;54.310;10.112;2022-09-03T10:51:25;28.80;41.70
9177;DHT22;4623;54.310;10.112;2022-09-03T11:01:53;28.00;41.30
9177;DHT22;4623;54.310;10.112;2022-09-03T11:04:53;27.20;42.70
9177;DHT22;4623;54.310;10.112;2022-09-03T11:07:24;27.10;43.10
9177;DHT22;4623;54.310;10.112;2022-09-03T11:10:09;28.00;43.30
9177;DHT22;4623;54.310;10.112;2022-09-03T11:12:42;28.20;40.90
9177;DHT22;4623;54.310;10.112;2022-09-03T11:15:21;27.70;40.90
9177;DHT22;4623;54.310;10.112;2022-09-03T11:17:53;27.10;41.80
9177;DHT22;4623;54.310;10.112;2022-09-03T11:20:26;27.50;41.30
9177;DHT22;4623;54.310;10.112;2022-09-03T11:23:00;27.80;41.00
9177;DHT22;4623;54.310;10.112;2022-09-03T11:25:42;27.90;41.10
9177;DHT22;4623;54.310;10.112;2022-09-03T11:33:26;28.80;39.30
9177;DHT22;4623;54.310;10.112;2022-09-03T11:35:57;29.10;40.00
9177;DHT22;4623;54.310;10.112;2022-09-03T11:38:27;29.50;39.20
9177;DHT22;4623;54.310;10.112;2022-09-03T11:41:14;30.10;39.50
9177;DHT22;4623;54.310;10.112;2022-09-03T11:43:48;31.20;38.40
9177;DHT22;4623;54.310;10.112;2022-09-03T11:49:09;31.50;37.50
9177;DHT22;4623;54.310;10.112;2022-09-03T11:51:36;32.10;36.40
9177;DHT22;4623;54.310;10.112;2022-09-03T11:56:37;30.70;36.50
9177;DHT22;4623;54.310;10.112;2022-09-03T12:01:50;28.90;37.90
9177;DHT22;4623;54.310;10.112;2022-09-03T12:04:20;28.30;38.20
9177;DHT22;4623;54.310;10.112;2022-09-03T12:12:35;27.60;39.70
9177;DHT22;4623;54.310;10.112;2022-09-03T12:20:40;28.90;38.40
9177;DHT22;4623;54.310;10.112;2022-09-03T12:23:06;28.90;38.40
9177;DHT22;4623;54.310;10.112;2022-09-03T12:25:42;27.60;38.90
9177;DHT22;4623;54.310;10.112;2022-09-03T12:28:15;27.90;38.70
9177;DHT22;4623;54.310;10.112;2022-09-03T12:30:41;28.80;38.70
9177;DHT22;4623;54.310;10.112;2022-09-03T12:33:08;29.80;38.40
9177;DHT22;4623;54.310;10.112;2022-09-03T12:35:37;30.30;37.40
9177;DHT22;4623;54.310;10.112;2022-09-03T12:38:03;30.70;37.80
9177;DHT22;4623;54.310;10.112;2022-09-03T12:40:29;30.70;36.30
9177;DHT22;4623;54.310;10.112;2022-09-03T12:43:11;30.80;36.50
9177;DHT22;4623;54.310;10.112;2022-09-03T12:45:46;30.80;35.50
9177;DHT22;4623;54.310;10.112;2022-09-03T12:48:16;30.10;36.40
9177;DHT22;4623;54.310;10.112;2022-09-03T12:50:43;30.40;36.80
9177;DHT22;4623;54.310;10.112;2022-09-03T12:53:21;30.20;37.00
9177;DHT22;4623;54.310;10.112;2022-09-03T12:55:52;30.40;36.50
9177;DHT22;4623;54.310;10.112;2022-09-03T12:58:20;30.20;35.60
9177;DHT22;4623;54.310;10.112;2022-09-03T13:01:07;30.20;35.90
9177;DHT22;4623;54.310;10.112;2022-09-03T13:03:53;29.10;35.70
9177;DHT22;4623;54.310;10.112;2022-09-03T13:06:29;28.30;36.80
9177;DHT22;4623;54.310;10.112;2022-09-03T13:09:02;27.50;38.20
9177;DHT22;4623;54.310;10.112;2022-09-03T13:11:32;27.80;38.30
9177;DHT22;4623;54.310;10.112;2022-09-03T13:14:27;27.20;38.70
9177;DHT22;4623;54.310;10.112;2022-09-03T13:33:53;27.20;39.70
9177;DHT22;4623;54.310;10.112;2022-09-03T13:39:28;27.30;38.80
9177;DHT22;4623;54.310;10.112;2022-09-03T13:47:30;27.00;41.80
9177;DHT22;4623;54.310;10.112;2022-09-03T13:50:10;26.50;42.50
9177;DHT22;4623;54.310;10.112;2022-09-03T13:55:43;24.90;41.90
9177;DHT22;4623;54.310;10.112;2022-09-03T13:58:31;24.50;41.90
9177;DHT22;4623;54.310;10.112;2022-09-03T14:03:45;24.50;44.90
9177;DHT22;4623;54.310;10.112;2022-09-03T14:06:32;24.40;45.90
9177;DHT22;4623;54.310;10.112;2022-09-03T14:09:18;24.30;46.00
9177;DHT22;4623;54.310;10.112;2022-09-03T14:25:20;24.10;46.20
9177;DHT22;4623;54.310;10.112;2022-09-03T14:27:49;23.70;45.20
9177;DHT22;4623;54.310;10.112;2022-09-03T14:38:30;22.90;46.10
9177;DHT22;4623;54.310;10.112;2022-09-03T14:41:16;22.90;47.20
9177;DHT22;4623;54.310;10.112;2022-09-03T14:50:21;22.70;50.60
9177;DHT22;4623;54.310;10.112;2022-09-03T14:53:06;22.80;50.90
9177;DHT22;4623;54.310;10.112;2022-09-03T15:01:11;22.80;50.60
9177;DHT22;4623;54.310;10.112;2022-09-03T15:12:20;22.10;49.50
9177;DHT22;4623;54.310;10.112;2022-09-03T15:14:55;22.10;51.30
9177;DHT22;4623;54.310;10.112;2022-09-03T15:20:48;22.10;51.90
9177;DHT22;4623;54.310;10.112;2022-09-03T15:23:55;22.10;52.40
9177;DHT22;4623;54.310;10.112;2022-09-03T15:29:45;22.00;52.70
9177;DHT22;4623;54.310;10.112;2022-09-03T15:37:46;22.00;53.60
9177;DHT22;4623;54.310;10.112;2022-09-03T15:40:35;22.10;53.40
9177;DHT22;4623;54.310;10.112;2022-09-03T15:43:09;22.10;53.80
9177;DHT22;4623;54.310;10.112;2022-09-03T15:45:38;21.90;54.60
9177;DHT22;4623;54.310;10.112;2022-09-03T15:53:29;21.70;55.70
9177;DHT22;4623;54.310;10.112;2022-09-03T15:56:24;21.70;55.20
9177;DHT22;4623;54.310;10.112;2022-09-03T16:01:22;21.50;55.70
9177;DHT22;4623;54.310;10.112;2022-09-03T16:07:06;21.60;55.40
9177;DHT22;4623;54.310;10.112;2022-09-03T16:12:48;21.60;55.30
9177;DHT22;4623;54.310;10.112;2022-09-03T16:15:44;21.50;55.90
9177;DHT22;4623;54.310;10.112;2022-09-03T16:18:37;21.50;55.80
9177;DHT22;4623;54.310;10.112;2022-09-03T16:21:06;21.50;56.50
9177;DHT22;4623;54.310;10.112;2022-09-03T16:23:51;21.40;56.70
9177;DHT22;4623;54.310;10.112;2022-09-03T16:29:18;21.30;62.50
9177;DHT22;4623;54.310;10.112;2022-09-03T16:32:12;21.20;64.10
9177;DHT22;4623;54.310;10.112;2022-09-03T16:46:25;21.10;69.80
9177;DHT22;4623;54.310;10.112;2022-09-03T16:52:15;21.00;75.90
9177;DHT22;4623;54.310;10.112;2022-09-03T17:00:20;20.90;83.60
9177;DHT22;4623;54.310;10.112;2022-09-03T17:06:04;20.80;88.20
9177;DHT22;4623;54.310;10.112;2022-09-03T17:09:19;20.80;91.00
9177;DHT22;4623;54.310;10.112;2022-09-03T17:11:58;20.80;89.30
9177;DHT22;4623;54.310;10.112;2022-09-03T17:20:47;20.70;89.90
9177;DHT22;4623;54.310;10.112;2022-09-03T17:23:36;20.60;90.00
9177;DHT22;4623;54.310;10.112;2022-09-03T17:26:22;20.60;90.10
9177;DHT22;4623;54.310;10.112;2022-09-03T17:34:54;20.50;92.40
9177;DHT22;4623;54.310;10.112;2022-09-03T17:40:15;20.50;93.10
9177;DHT22;4623;54.310;10.112;2022-09-03T17:45:44;20.50;96.60
9177;DHT22;4623;54.310;10.112;2022-09-03T17:51:42;20.30;99.90
9177;DHT22;4623;54.310;10.112;2022-09-03T17:54:18;20.20;99.90
9177;DHT22;4623;54.310;10.112;2022-09-03T18:00:01;20.10;99.90
9177;DHT22;4623;54.310;10.112;2022-09-03T18:02:38;20.00;99.90
9177;DHT22;4623;54.310;10.112;2022-09-03T18:07:54;19.90;99.90
9177;DHT22;4623;54.310;10.112;2022-09-03T18:10:28;19.90;99.90
9177;DHT22;4623;54.310;10.112;2022-09-03T18:15:34;19.80;99.90
9177;DHT22;4623;54.310;10.112;2022-09-03T18:18:12;19.70;99.90
9177;DHT22;4623;54.310;10.112;2022-09-03T18:20:48;19.70;99.90
9177;DHT22;4623;54.310;10.112;2022-09-03T18:26:59;19.60;99.90
9177;DHT22;4623;54.310;10.112;2022-09-03T18:30:08;19.50;99.90
9177;DHT22;4623;54.310;10.112;2022-09-03T18:32:52;19.50;99.90
9177;DHT22;4623;54.310;10.112;2022-09-03T18:35:37;19.50;99.90
9177;DHT22;4623;54.310;10.112;2022-09-03T18:38:27;19.50;99.90
9177;DHT22;4623;54.310;10.112;2022-09-03T18:47:51;19.40;99.90
9177;DHT22;4623;54.310;10.112;2022-09-03T18:56:58;19.20;99.90
9177;DHT22;4623;54.310;10.112;2022-09-03T19:06:06;19.10;99.90
9177;DHT22;4623;54.310;10.112;2022-09-03T19:20:31;18.90;99.90
9177;DHT22;4623;54.310;10.112;2022-09-03T19:23:18;18.90;99.90
9177;DHT22;4623;54.310;10.112;2022-09-03T19:26:18;18.90;99.90
9177;DHT22;4623;54.310;10.112;2022-09-03T19:29:25;18.80;99.90
9177;DHT22;4623;54.310;10.112;2022-09-03T19:32:18;18.80;99.90
9177;DHT22;4623;54.310;10.112;2022-09-03T19:35:18;18.80;99.90
9177;DHT22;4623;54.310;10.112;2022-09-03T19:42:20;18.70;99.90
9177;DHT22;4623;54.310;10.112;2022-09-03T19:44:58;18.70;99.90
9177;DHT22;4623;54.310;10.112;2022-09-03T19:48:01;18.70;99.90
9177;DHT22;4623;54.310;10.112;2022-09-03T19:51:07;18.60;99.90
9177;DHT22;4623;54.310;10.112;2022-09-03T19:53:53;18.60;99.90
9177;DHT22;4623;54.310;10.112;2022-09-03T19:56:39;18.60;99.90
9177;DHT22;4623;54.310;10.112;2022-09-03T19:59:33;18.60;99.90
9177;DHT22;4623;54.310;10.112;2022-09-03T20:02:19;18.60;99.90
9177;DHT22;4623;54.310;10.112;2022-09-03T20:05:09;18.50;99.90
9177;DHT22;4623;54.310;10.112;2022-09-03T20:07:55;18.50;99.90
9177;DHT22;4623;54.310;10.112;2022-09-03T20:10:42;18.50;99.90
9177;DHT22;4623;54.310;10.112;2022-09-03T20:13:16;18.40;99.90
9177;DHT22;4623;54.310;10.112;2022-09-03T20:21:46;18.40;99.90
9177;DHT22;4623;54.310;10.112;2022-09-03T20:35:14;18.20;99.90
9177;DHT22;4623;54.310;10.112;2022-09-03T20:52:58;18.00;99.90
9177;DHT22;4623;54.310;10.112;2022-09-03T20:58:06;18.10;99.90
9177;DHT22;4623;54.310;10.112;2022-09-03T21:00:48;18.00;99.90
9177;DHT22;4623;54.310;10.112;2022-09-03T21:06:19;18.00;99.90
9177;DHT22;4623;54.310;10.112;2022-09-03T21:11:38;17.90;99.90
9177;DHT22;4623;54.310;10.112;2022-09-03T21:20:12;17.80;99.90
9177;DHT22;4623;54.310;10.112;2022-09-03T21:25:15;17.80;99.90
9177;DHT22;4623;54.310;10.112;2022-09-03T21:27:50;17.80;99.90
9177;DHT22;4623;54.310;10.112;2022-09-03T21:30:19;17.70;99.90
9177;DHT22;4623;54.310;10.112;2022-09-03T21:36:08;17.70;99.90
9177;DHT22;4623;54.310;10.112;2022-09-03T21:40:45;17.60;99.90
9177;DHT22;4623;54.310;10.112;2022-09-03T21:43:16;17.60;99.90
9177;DHT22;4623;54.310;10.112;2022-09-03T21:45:45;17.60;99.90
9177;DHT22;4623;54.310;10.112;2022-09-03T21:54:13;17.50;99.90
9177;DHT22;4623;54.310;10.112;2022-09-03T21:56:59;17.50;99.90
9177;DHT22;4623;54.310;10.112;2022-09-03T21:59:55;17.40;99.90
9177;DHT22;4623;54.310;10.112;2022-09-03T22:02:26;17.40;99.90
9177;DHT22;4623;54.310;10.112;2022-09-03T22:04:53;17.30;99.90
9177;DHT22;4623;54.310;10.112;2022-09-03T22:13:05;17.40;99.90
9177;DHT22;4623;54.310;10.112;2022-09-03T22:15:44;17.40;99.90
9177;DHT22;4623;54.310;10.112;2022-09-03T22:18:26;17.40;99.90
9177;DHT22;4623;54.310;10.112;2022-09-03T22:21:09;17.30;99.90
9177;DHT22;4623;54.310;10.112;2022-09-03T22:24:16;17.40;99.90
9177;DHT22;4623;54.310;10.112;2022-09-03T22:38:01;17.30;99.90
9177;DHT22;4623;54.310;10.112;2022-09-03T22:40:45;17.20;99.90
9177;DHT22;4623;54.310;10.112;2022-09-03T22:50:57;17.20;99.90
9177;DHT22;4623;54.310;10.112;2022-09-03T22:56:11;17.20;99.90
9177;DHT22;4623;54.310;10.112;2022-09-03T22:58:43;17.10;99.90
9177;DHT22;4623;54.310;10.112;2022-09-03T23:01:17;17.20;99.90
9177;DHT22;4623;54.310;10.112;2022-09-03T23:06:25;17.20;99.90
9177;DHT22;4623;54.310;10.112;2022-09-03T23:09:20;17.20;99.90
9177;DHT22;4623;54.310;10.112;2022-09-03T23:11:52;17.20;99.90
9177;DHT22;4623;54.310;10.112;2022-09-03T23:14:26;17.20;99.90
9177;DHT22;4623;54.310;10.112;2022-09-03T23:16:53;17.20;99.90
9177;DHT22;4623;54.310;10.112;2022-09-03T23:19:31;17.20;99.90
9177;DHT22;4623;54.310;10.112;2022-09-03T23:22:11;17.20;99.90
9177;DHT22;4623;54.310;10.112;2022-09-03T23:24:48;17.20;99.90
9177;DHT22;4623;54.310;10.112;2022-09-03T23:27:17;17.20;99.90
9177;DHT22;4623;54.310;10.112;2022-09-03T23:29:49;17.30;99.90
9177;DHT22;4623;54.310;10.112;2022-09-03T23:32:15;17.20;99.90